createdAt,value
2022-12-23T00:02:31.252Z,59.21
2022-12-23T00:05:03.856Z,63.19
2022-12-23T00:07:36.489Z,66.30
2022-12-23T00:10:11.050Z,65.27
2022-12-23T00:13:01.025Z,63.70
2022-12-23T00:15:33.623Z,62.42
2022-12-23T00:18:06.273Z,61.65
2022-12-23T00:20:41.699Z,60.39
2022-12-23T00:23:14.214Z,59.75
2022-12-23T00:25:46.954Z,57.90
2022-12-23T00:28:21.259Z,57.23
2022-12-23T00:30:55.407Z,58.19
2022-12-23T00:33:29.220Z,59.79
2022-12-23T00:36:04.226Z,63.55
2022-12-23T00:38:54.281Z,66.39
2022-12-23T00:41:44.317Z,65.25
2022-12-23T00:44:16.831Z,63.70
2022-12-23T00:46:49.397Z,62.54
2022-12-23T00:49:40.205Z,61.87
2022-12-23T00:52:16.769Z,60.99
2022-12-23T00:54:49.212Z,60.53
2022-12-23T00:57:21.718Z,60.32
2022-12-23T00:59:54.293Z,60.34
2022-12-23T01:02:44.092Z,60.47
2022-12-23T01:05:36.268Z,57.78
2022-12-23T01:08:11.357Z,56.52
2022-12-23T01:10:43.839Z,58.04
2022-12-23T01:13:16.346Z,59.19
2022-12-23T01:15:49.197Z,62.61
2022-12-23T01:18:23.588Z,65.60
2022-12-23T01:20:56.201Z,65.46
2022-12-23T01:23:28.803Z,64.27
2022-12-23T01:26:03.690Z,63.60
2022-12-23T01:28:37.226Z,62.70
2022-12-23T01:31:12.854Z,61.78
2022-12-23T01:33:46.103Z,60.23
2022-12-23T01:36:19.458Z,60.25
2022-12-23T01:38:52.281Z,60.22
2022-12-23T01:41:44.979Z,58.11
2022-12-23T01:44:51.664Z,56.35
2022-12-23T01:47:28.428Z,57.46
2022-12-23T01:50:07.648Z,59.58
2022-12-23T01:52:46.038Z,62.86
2022-12-23T01:55:20.274Z,66.12
2022-12-23T01:57:53.757Z,65.98
2022-12-23T02:00:44.066Z,64.70
2022-12-23T02:03:33.956Z,63.96
2022-12-23T02:06:21.337Z,62.09
2022-12-23T02:09:11.030Z,60.92
2022-12-23T02:12:15.796Z,57.76
2022-12-23T02:15:37.147Z,56.10
2022-12-23T02:18:32.471Z,57.92
2022-12-23T02:21:29.203Z,59.97
2022-12-23T02:24:27.785Z,63.95
2022-12-23T02:27:20.297Z,65.73
2022-12-23T02:30:28.170Z,65.59
2022-12-23T02:33:31.559Z,66.41
2022-12-23T02:36:17.641Z,65.20
2022-12-23T02:38:57.966Z,63.38
2022-12-23T02:41:38.208Z,61.46
2022-12-23T02:44:20.214Z,58.27
2022-12-23T02:46:56.983Z,56.76
2022-12-23T02:49:34.866Z,57.85
2022-12-23T02:52:15.688Z,58.78
2022-12-23T02:54:53.113Z,60.49
2022-12-23T02:57:30.794Z,64.33
2022-12-23T03:00:05.189Z,68.20
2022-12-23T03:02:41.169Z,66.64
2022-12-23T03:05:29.324Z,64.85
2022-12-23T03:08:05.355Z,63.05
2022-12-23T03:10:46.363Z,61.28
2022-12-23T03:13:30.415Z,58.40
2022-12-23T03:16:16.155Z,56.59
2022-12-23T03:19:02.579Z,57.86
2022-12-23T03:21:42.680Z,59.10
2022-12-23T03:24:23.388Z,63.66
2022-12-23T03:27:04.692Z,67.04
2022-12-23T03:29:44.111Z,65.15
2022-12-23T03:32:18.377Z,63.13
2022-12-23T03:34:53.622Z,61.67
2022-12-23T03:37:29.182Z,60.55
2022-12-23T03:40:06.124Z,58.23
2022-12-23T03:42:41.296Z,56.58
2022-12-23T03:48:17.371Z,58.33
2022-12-23T03:50:54.126Z,60.02
2022-12-23T03:53:31.047Z,64.32
2022-12-23T03:56:07.969Z,67.94
2022-12-23T03:58:44.418Z,65.63
2022-12-23T04:01:27.273Z,63.80
2022-12-23T04:04:08.118Z,62.37
2022-12-23T04:06:46.775Z,60.89
2022-12-23T04:09:22.357Z,59.90
2022-12-23T04:11:56.372Z,57.53
2022-12-23T04:14:28.856Z,56.38
2022-12-23T04:17:01.676Z,57.38
2022-12-23T04:19:34.196Z,58.81
2022-12-23T04:22:06.743Z,60.80
2022-12-23T04:24:39.357Z,64.52
2022-12-23T04:27:14.846Z,67.66
2022-12-23T04:29:47.971Z,66.00
2022-12-23T04:32:20.449Z,63.94
2022-12-23T04:34:53.023Z,62.34
2022-12-23T04:37:28.236Z,61.79
2022-12-23T04:40:00.718Z,61.46
2022-12-23T04:42:33.371Z,60.71
2022-12-23T04:45:09.847Z,59.99
2022-12-23T04:47:42.376Z,57.88
2022-12-23T04:50:17.199Z,56.68
2022-12-23T04:52:49.705Z,57.73
2022-12-23T04:55:22.225Z,59.33
2022-12-23T04:57:54.774Z,63.49
2022-12-23T05:00:27.448Z,66.61
2022-12-23T05:03:00.226Z,65.48
2022-12-23T05:05:32.976Z,64.48
2022-12-23T05:08:07.777Z,63.68
2022-12-23T05:10:40.325Z,62.66
2022-12-23T05:13:12.909Z,61.77
2022-12-23T05:15:46.717Z,61.24
2022-12-23T05:18:19.502Z,61.08
2022-12-23T05:20:52.677Z,60.55
2022-12-23T05:23:25.197Z,60.14
2022-12-23T05:25:58.023Z,60.12
2022-12-23T05:28:30.633Z,60.91
2022-12-23T05:31:06.417Z,61.76
2022-12-23T05:33:39.145Z,62.60
2022-12-23T05:36:12.719Z,63.52
2022-12-23T05:38:45.216Z,66.25
2022-12-23T05:41:18.552Z,66.46
2022-12-23T05:43:51.227Z,65.09
2022-12-23T05:46:26.786Z,63.99
2022-12-23T05:48:59.697Z,63.53
2022-12-23T05:51:32.197Z,62.65
2022-12-23T05:54:04.727Z,61.83
2022-12-23T05:56:37.798Z,61.36
2022-12-23T05:59:10.458Z,60.82
2022-12-23T06:01:43.017Z,60.39
2022-12-23T06:04:15.634Z,59.90
2022-12-23T06:06:48.144Z,59.75
2022-12-23T06:09:20.583Z,58.29
2022-12-23T06:11:53.261Z,57.09
2022-12-23T06:14:29.064Z,58.27
2022-12-23T06:17:02.033Z,60.01
2022-12-23T06:19:34.481Z,63.27
2022-12-23T06:22:07.986Z,66.12
2022-12-23T06:24:41.081Z,68.14
2022-12-23T06:27:13.798Z,67.95
2022-12-23T06:29:46.503Z,66.93
2022-12-23T06:32:19.049Z,66.27
2022-12-23T06:34:53.421Z,65.33
2022-12-23T06:37:25.934Z,64.29
2022-12-23T06:39:58.535Z,63.09
2022-12-23T06:42:31.237Z,62.49
2022-12-23T06:45:03.725Z,62.08
2022-12-23T06:47:36.233Z,61.52
2022-12-23T06:50:10.332Z,61.08
2022-12-23T06:52:42.802Z,60.93
2022-12-23T06:55:15.496Z,60.67
2022-12-23T06:57:47.923Z,60.61
2022-12-23T07:00:22.737Z,60.67
2022-12-23T07:02:56.149Z,60.62
2022-12-23T07:05:36.457Z,60.46
2022-12-23T07:08:09.855Z,60.10
2022-12-23T07:10:42.443Z,58.39
2022-12-23T07:13:15.227Z,57.24
2022-12-23T07:15:47.769Z,58.20
2022-12-23T07:18:20.246Z,59.50
2022-12-23T07:20:53.238Z,62.84
2022-12-23T07:23:25.687Z,65.99
2022-12-23T07:25:58.556Z,65.98
2022-12-23T07:28:31.081Z,64.76
2022-12-23T07:31:06.341Z,63.48
2022-12-23T07:33:38.861Z,62.70
2022-12-23T07:36:12.095Z,61.92
2022-12-23T07:38:44.917Z,61.16
2022-12-23T07:41:17.402Z,60.18
2022-12-23T07:43:50.054Z,59.73
2022-12-23T07:46:22.639Z,57.95
2022-12-23T07:48:55.404Z,56.79
2022-12-23T07:51:28.306Z,57.59
2022-12-23T07:54:00.914Z,58.81
2022-12-23T07:56:33.409Z,60.76
2022-12-23T07:59:05.881Z,63.92
2022-12-23T08:01:38.717Z,66.48
2022-12-23T08:04:11.457Z,65.15
2022-12-23T08:06:43.933Z,63.61
2022-12-23T08:09:19.335Z,62.29
2022-12-23T08:11:51.927Z,60.81
2022-12-23T08:14:24.539Z,58.42
2022-12-23T08:16:59.212Z,56.89
2022-12-23T08:19:31.736Z,57.31
2022-12-23T08:22:04.263Z,59.02
2022-12-23T08:24:36.733Z,61.44
2022-12-23T08:27:09.205Z,64.12
2022-12-23T08:29:42.005Z,66.41
2022-12-23T08:32:14.666Z,64.86
2022-12-23T08:34:47.139Z,62.68
2022-12-23T08:37:19.820Z,61.04
2022-12-23T08:39:52.332Z,60.10
2022-12-23T08:42:26.102Z,57.37
2022-12-23T08:44:58.856Z,56.07
2022-12-23T08:47:31.375Z,57.09
2022-12-23T08:50:04.007Z,59.07
2022-12-23T08:52:36.489Z,60.55
2022-12-23T08:55:10.257Z,62.83
2022-12-23T08:57:42.712Z,65.26
2022-12-23T09:00:16.389Z,65.08
2022-12-23T09:02:49.003Z,62.82
2022-12-23T09:05:21.602Z,60.43
2022-12-23T09:07:54.332Z,56.68
2022-12-23T09:10:28.092Z,55.10
2022-12-23T09:13:00.541Z,55.51
2022-12-23T09:15:33.112Z,56.00
2022-12-23T09:18:05.617Z,57.46
2022-12-23T09:20:38.385Z,59.71
2022-12-23T09:23:10.923Z,60.19
2022-12-23T09:25:43.446Z,61.26
2022-12-23T09:28:15.924Z,63.82
2022-12-23T09:30:48.481Z,66.09
2022-12-23T09:33:21.045Z,64.41
2022-12-23T09:35:53.575Z,61.92
2022-12-23T09:38:26.044Z,58.66
2022-12-23T09:41:05.312Z,55.49
2022-12-23T09:43:49.941Z,56.07
2022-12-23T09:46:26.833Z,57.05
2022-12-23T09:49:05.463Z,58.87
2022-12-23T09:51:38.461Z,60.07
2022-12-23T09:54:17.799Z,60.80
2022-12-23T09:56:56.217Z,61.76
2022-12-23T09:59:47.708Z,64.97
2022-12-23T10:02:29.904Z,67.04
2022-12-23T10:05:15.822Z,64.85
2022-12-23T10:07:52.913Z,61.77
2022-12-23T10:10:35.983Z,56.94
2022-12-23T10:13:14.162Z,54.44
2022-12-23T10:15:47.456Z,54.55
2022-12-23T10:18:26.275Z,54.50
2022-12-23T10:21:02.929Z,57.58
2022-12-23T10:23:39.279Z,57.81
2022-12-23T10:26:19.761Z,60.28
2022-12-23T10:28:56.295Z,61.11
2022-12-23T10:31:40.924Z,61.94
2022-12-23T10:34:23.420Z,64.68
2022-12-23T10:37:08.746Z,65.00
2022-12-23T10:39:46.177Z,62.88
2022-12-23T10:42:29.201Z,62.01
2022-12-23T10:45:32.697Z,60.39
2022-12-23T10:48:23.070Z,56.37
2022-12-23T10:51:02.736Z,54.61
2022-12-23T10:53:47.100Z,55.44
2022-12-23T10:56:21.959Z,56.33
2022-12-23T10:58:58.111Z,57.16
2022-12-23T11:01:31.868Z,59.14
2022-12-23T11:04:10.296Z,60.17
2022-12-23T11:06:45.421Z,61.10
2022-12-23T11:09:21.593Z,61.57
2022-12-23T11:11:59.763Z,64.13
2022-12-23T11:14:41.658Z,66.01
2022-12-23T11:17:24.571Z,65.25
2022-12-23T11:20:13.581Z,62.84
2022-12-23T11:22:52.899Z,61.02
2022-12-23T11:25:38.149Z,58.04
2022-12-23T11:28:17.505Z,56.61
2022-12-23T11:30:58.365Z,57.42
2022-12-23T11:33:33.367Z,58.78
2022-12-23T11:36:10.026Z,60.34
2022-12-23T11:38:52.598Z,63.27
2022-12-23T11:41:27.986Z,65.57
2022-12-23T11:44:04.964Z,65.05
2022-12-23T11:46:38.030Z,64.21
2022-12-23T11:49:21.763Z,62.94
2022-12-23T11:52:03.643Z,61.84
2022-12-23T11:54:37.171Z,61.16
2022-12-23T11:57:17.760Z,60.32
2022-12-23T11:59:56.669Z,57.78
2022-12-23T12:02:37.654Z,56.38
2022-12-23T12:05:23.034Z,56.87
2022-12-23T12:07:59.828Z,58.60
2022-12-23T12:10:35.153Z,60.59
2022-12-23T12:13:17.468Z,64.44
2022-12-23T12:15:57.388Z,67.45
2022-12-23T12:18:30.744Z,66.25
2022-12-23T12:21:06.960Z,64.14
2022-12-23T12:23:45.454Z,63.19
2022-12-23T12:26:24.397Z,63.91
2022-12-23T12:29:02.535Z,62.47
2022-12-23T12:31:40.478Z,60.44
2022-12-23T12:34:29.534Z,60.65
2022-12-23T12:37:08.952Z,60.65
2022-12-23T12:39:47.279Z,60.57
2022-12-23T12:42:27.185Z,60.90
2022-12-23T12:45:06.798Z,60.72
2022-12-23T12:47:54.115Z,60.18
2022-12-23T12:50:31.284Z,57.93
2022-12-23T12:53:20.211Z,56.91
2022-12-23T12:55:58.410Z,57.83
2022-12-23T12:58:29.493Z,59.55
2022-12-23T13:01:14.792Z,59.01
2022-12-23T13:04:07.287Z,64.77
2022-12-23T13:06:49.539Z,68.18
2022-12-23T13:09:32.486Z,66.59
2022-12-23T13:12:16.240Z,65.32
2022-12-23T13:15:00.799Z,63.53
2022-12-23T13:17:39.262Z,62.94
2022-12-23T13:20:26.675Z,61.91
2022-12-23T13:23:34.424Z,61.11
2022-12-23T13:26:06.708Z,60.78
2022-12-23T13:28:51.271Z,60.63
2022-12-23T13:31:41.184Z,60.57
2022-12-23T13:34:30.014Z,60.27
2022-12-23T13:37:13.430Z,59.76
2022-12-23T13:39:57.302Z,59.93
2022-12-23T13:42:35.742Z,59.94
2022-12-23T13:45:15.566Z,59.81
2022-12-23T13:48:04.332Z,58.90
2022-12-23T13:50:43.634Z,57.13
2022-12-23T13:53:21.857Z,57.94
2022-12-23T13:56:12.351Z,57.62
2022-12-23T13:58:49.262Z,62.98
2022-12-23T14:01:44.760Z,66.95
2022-12-23T14:04:58.342Z,66.26
2022-12-23T14:07:33.431Z,65.52
2022-12-23T14:10:21.778Z,64.91
2022-12-23T14:13:00.441Z,63.67
2022-12-23T14:15:49.687Z,63.19
2022-12-23T14:18:46.521Z,62.51
2022-12-23T14:21:29.173Z,62.49
2022-12-23T14:24:26.405Z,61.71
2022-12-23T14:27:23.112Z,61.82
2022-12-23T14:30:09.030Z,61.74
2022-12-23T14:32:47.990Z,61.60
2022-12-23T14:35:25.281Z,61.75
2022-12-23T14:38:31.470Z,61.44
2022-12-23T14:41:24.225Z,60.91
2022-12-23T14:44:02.913Z,60.59
2022-12-23T14:46:58.600Z,60.80
2022-12-23T14:49:44.204Z,61.46
2022-12-23T14:52:48.107Z,61.22
2022-12-23T14:55:51.565Z,61.06
2022-12-23T14:58:33.722Z,60.83
2022-12-23T15:01:13.758Z,60.92
2022-12-23T15:03:57.556Z,60.87
2022-12-23T15:06:37.414Z,61.01
2022-12-23T15:09:20.015Z,61.33
2022-12-23T15:11:53.929Z,61.24
2022-12-23T15:14:35.346Z,61.27
2022-12-23T15:17:25.634Z,61.57
2022-12-23T15:20:09.391Z,61.50
2022-12-23T15:22:43.354Z,61.73
2022-12-23T15:25:27.703Z,61.74
2022-12-23T15:28:02.688Z,61.53
2022-12-23T15:30:47.343Z,61.19
2022-12-23T15:36:23.169Z,60.91
2022-12-23T15:38:55.946Z,60.42
2022-12-23T15:41:29.130Z,61.08
2022-12-23T15:44:02.489Z,61.58
2022-12-23T15:46:40.202Z,61.64
2022-12-23T15:49:14.613Z,61.54
2022-12-23T15:54:47.089Z,61.80
2022-12-23T15:57:23.989Z,61.85
2022-12-23T15:59:57.167Z,61.80
2022-12-23T16:05:32.014Z,62.87
2022-12-23T16:08:30.310Z,61.66
2022-12-23T16:11:13.981Z,61.04
2022-12-23T16:13:58.684Z,60.85
2022-12-23T16:16:38.793Z,60.79
2022-12-23T16:19:40.818Z,62.43
2022-12-23T16:22:29.595Z,62.08
2022-12-23T16:25:10.582Z,61.38
2022-12-23T16:27:45.328Z,60.62
2022-12-23T16:30:21.680Z,61.84
2022-12-23T16:32:56.682Z,61.60
2022-12-23T16:35:41.145Z,61.12
2022-12-23T16:38:17.389Z,61.38
2022-12-23T16:40:52.623Z,60.60
2022-12-23T16:43:26.110Z,60.26
2022-12-23T16:46:00.130Z,59.55
2022-12-23T16:48:36.631Z,57.72
2022-12-23T16:51:14.493Z,58.18
2022-12-23T16:53:47.296Z,59.88
2022-12-23T16:56:22.156Z,63.08
2022-12-23T16:58:54.859Z,66.10
2022-12-23T17:01:30.981Z,67.98
2022-12-23T17:04:03.911Z,65.57
2022-12-23T17:06:37.408Z,65.01
2022-12-23T17:09:11.765Z,65.15
2022-12-23T17:11:47.547Z,64.25
2022-12-23T17:14:22.081Z,63.22
2022-12-23T17:16:55.011Z,62.93
2022-12-23T17:19:29.346Z,62.29
2022-12-23T17:22:04.718Z,61.68
2022-12-23T17:24:37.585Z,61.60
2022-12-23T17:27:15.831Z,61.55
2022-12-23T17:29:48.370Z,61.29
2022-12-23T17:32:22.760Z,61.12
2022-12-23T17:34:56.979Z,60.80
2022-12-23T17:37:33.845Z,60.48
2022-12-23T17:40:07.537Z,60.60
2022-12-23T17:42:40.558Z,60.54
2022-12-23T17:45:25.335Z,60.08
2022-12-23T17:47:58.124Z,60.47
2022-12-23T17:50:31.563Z,60.23
2022-12-23T17:53:04.385Z,60.05
2022-12-23T17:55:37.224Z,59.89
2022-12-23T17:58:10.217Z,59.93
2022-12-23T18:00:43.148Z,59.65
2022-12-23T18:03:24.674Z,59.54
2022-12-23T18:06:02.046Z,57.89
2022-12-23T18:08:35.139Z,57.44
2022-12-23T18:11:08.682Z,58.88
2022-12-23T18:13:41.531Z,62.58
2022-12-23T18:16:15.333Z,65.66
2022-12-23T18:18:47.967Z,64.13
2022-12-23T18:21:24.903Z,63.45
2022-12-23T18:24:00.878Z,64.64
2022-12-23T18:26:33.520Z,64.53
2022-12-23T18:29:06.317Z,63.80
2022-12-23T18:31:50.026Z,63.03
2022-12-23T18:34:23.936Z,62.88
2022-12-23T18:36:56.446Z,62.08
2022-12-23T18:39:29.323Z,61.88
2022-12-23T18:42:02.449Z,61.55
2022-12-23T18:44:35.240Z,60.80
2022-12-23T18:47:08.141Z,60.71
2022-12-23T18:49:41.179Z,60.99
2022-12-23T18:52:15.077Z,61.71
2022-12-23T18:54:47.900Z,63.24
2022-12-23T18:57:23.356Z,63.24
2022-12-23T18:59:56.103Z,63.02
2022-12-23T19:02:29.380Z,63.04
2022-12-23T19:05:02.141Z,62.36
2022-12-23T19:07:34.751Z,62.04
2022-12-23T19:10:10.726Z,61.85
2022-12-23T19:12:43.411Z,61.44
2022-12-23T19:15:17.556Z,61.70
2022-12-23T19:17:51.125Z,61.82
2022-12-23T19:20:24.129Z,62.32
2022-12-23T19:22:57.010Z,61.71
2022-12-23T19:25:30.289Z,60.28
2022-12-23T19:28:03.261Z,59.69
2022-12-23T19:30:37.367Z,60.13
2022-12-23T19:33:10.325Z,61.25
2022-12-23T19:35:45.418Z,60.35
2022-12-23T19:38:18.288Z,60.55
2022-12-23T19:40:59.327Z,60.98
2022-12-23T19:43:32.419Z,60.67
2022-12-23T19:46:09.071Z,61.02
2022-12-23T19:48:41.867Z,61.62
2022-12-23T19:51:16.957Z,62.41
2022-12-23T19:53:53.080Z,62.98
2022-12-23T19:56:26.371Z,63.41
2022-12-23T19:58:58.988Z,63.91
2022-12-23T20:01:31.902Z,64.56
2022-12-23T20:04:04.706Z,65.25
2022-12-23T20:06:38.564Z,65.72
2022-12-23T20:09:13.412Z,65.95
2022-12-23T20:11:47.494Z,66.48
2022-12-23T20:14:21.952Z,66.75
2022-12-23T20:16:54.955Z,67.21
2022-12-23T20:19:28.069Z,69.46
2022-12-23T20:22:00.877Z,68.45
2022-12-23T20:24:37.200Z,66.72
2022-12-23T20:27:12.576Z,64.56
2022-12-23T20:29:46.060Z,62.71
2022-12-23T20:32:18.756Z,61.42
2022-12-23T20:34:51.498Z,61.09
2022-12-23T20:37:24.347Z,61.11
2022-12-23T20:39:57.135Z,60.61
2022-12-23T20:42:29.683Z,60.48
2022-12-23T20:45:02.335Z,61.30
2022-12-23T20:47:35.322Z,61.87
2022-12-23T20:50:11.014Z,62.79
2022-12-23T20:52:43.805Z,61.90
2022-12-23T20:55:16.685Z,61.16
2022-12-23T20:57:49.500Z,59.91
2022-12-23T21:00:22.922Z,59.98
2022-12-23T21:02:56.880Z,60.60
2022-12-23T21:05:29.951Z,60.75
2022-12-23T21:08:02.997Z,60.16
2022-12-23T21:10:36.426Z,59.79
2022-12-23T21:13:09.143Z,58.19
2022-12-23T21:15:41.916Z,57.31
2022-12-23T21:18:16.793Z,58.57
2022-12-23T21:20:49.340Z,60.11
2022-12-23T21:23:22.145Z,64.38
2022-12-23T21:26:04.854Z,67.49
2022-12-23T21:28:37.787Z,67.05
2022-12-23T21:31:11.884Z,65.19
2022-12-23T21:33:47.086Z,63.73
2022-12-23T21:36:21.799Z,63.25
2022-12-23T21:38:54.902Z,63.39
2022-12-23T21:41:30.038Z,62.78
2022-12-23T21:44:04.505Z,62.03
2022-12-23T21:46:37.174Z,61.60
2022-12-23T21:49:10.919Z,61.68
2022-12-23T21:51:43.988Z,61.26
2022-12-23T21:54:20.859Z,60.48
2022-12-23T21:56:53.497Z,60.11
2022-12-23T21:59:32.827Z,57.83
2022-12-23T22:02:08.162Z,56.34
2022-12-23T22:04:40.936Z,57.94
2022-12-23T22:07:13.586Z,59.40
2022-12-23T22:09:46.241Z,63.87
2022-12-23T22:12:18.990Z,67.11
2022-12-23T22:14:52.812Z,64.98
2022-12-23T22:17:25.761Z,63.70
2022-12-23T22:19:58.377Z,62.84
2022-12-23T22:22:30.874Z,61.81
2022-12-23T22:25:03.383Z,60.81
2022-12-23T22:27:35.871Z,60.03
2022-12-23T22:30:10.328Z,57.58
2022-12-23T22:32:43.051Z,56.41
2022-12-23T22:35:15.863Z,57.58
2022-12-23T22:37:48.339Z,59.06
2022-12-23T22:40:21.227Z,62.33
2022-12-23T22:42:54.314Z,66.70
2022-12-23T22:45:27.690Z,65.98
2022-12-23T22:48:00.442Z,63.94
2022-12-23T22:51:57.271Z,62.36
2022-12-23T22:54:30.151Z,61.59
2022-12-23T22:57:03.117Z,61.19
2022-12-23T22:59:36.048Z,60.03
2022-12-23T23:02:09.157Z,57.43
2022-12-23T23:04:42.758Z,56.71
2022-12-23T23:07:15.574Z,57.64
2022-12-23T23:09:48.816Z,59.34
2022-12-23T23:12:21.558Z,63.77
2022-12-23T23:14:54.429Z,66.96
2022-12-23T23:17:28.662Z,65.21
2022-12-23T23:20:01.507Z,63.29
2022-12-23T23:22:34.810Z,61.72
2022-12-23T23:25:08.788Z,60.25
2022-12-23T23:27:41.878Z,58.26
2022-12-23T23:30:15.610Z,56.94
2022-12-23T23:32:48.616Z,57.63
2022-12-23T23:35:22.672Z,59.08
2022-12-23T23:37:57.403Z,63.33
2022-12-23T23:40:30.509Z,66.59
2022-12-23T23:48:06.672Z,60.82
2022-12-23T23:50:39.607Z,57.64
2022-12-23T23:53:13.059Z,55.89
2022-12-23T23:55:46.124Z,56.77
2022-12-23T23:58:19.225Z,58.70
